Time;durP1;ratioP1;P1;durP2;ratioP2;P2;SDS_P1;SDS_P2;PMS_P1;PMS_P2;Temp;Humidity;BMP_temperature;BMP_pressure;BME280_temperature;BME280_humidity;BME280_pressure;Samples;Min_cycle;Max_cycle;Signal;HPM_P1;HPM_P2
2021/07/23 00:02:07;;;;;;;23.1;18.3;;;;;;;17.49;81.25391;939.9311;;;;
2021/07/23 00:04:33;;;;;;;21.8;17.7;;;;;;;17.37;81.83594;939.8738;;;;
2021/07/23 00:06:58;;;;;;;22;17.9;;;;;;;17.31;82.09082;939.8513;;;;
2021/07/23 00:09:24;;;;;;;22.8;17.7;;;;;;;17.25;82.37988;939.8988;;;;
2021/07/23 00:11:50;;;;;;;22.1;17.9;;;;;;;17.21;82.64063;939.8934;;;;
2021/07/23 00:14:16;;;;;;;22.7;18.3;;;;;;;17.13;82.87988;939.9316;;;;
2021/07/23 00:16:42;;;;;;;21;17.5;;;;;;;17.05;83.16797;939.8914;;;;
2021/07/23 00:19:07;;;;;;;22;17.1;;;;;;;16.91;83.55762;939.8503;;;;
2021/07/23 00:21:32;;;;;;;24.1;17.9;;;;;;;16.98;83.25781;939.7729;;;;
2021/07/23 00:23:57;;;;;;;23.8;18.4;;;;;;;17.04;83.27051;939.7467;;;;
2021/07/23 00:26:22;;;;;;;24.5;19;;;;;;;17.09;82.88477;939.7308;;;;
2021/07/23 00:28:47;;;;;;;23.3;18.3;;;;;;;17.09;82.81738;939.7509;;;;
2021/07/23 00:31:13;;;;;;;23.5;18.7;;;;;;;17.04;83.16602;939.7227;;;;
2021/07/23 00:33:38;;;;;;;24.7;19.6;;;;;;;17.06;82.91309;939.6863;;;;
2021/07/23 00:36:04;;;;;;;23.8;19.1;;;;;;;17;82.65918;939.6962;;;;
2021/07/23 00:38:29;;;;;;;27.5;20.5;;;;;;;16.97;83.40527;939.6895;;;;
2021/07/23 00:40:56;;;;;;;25;19.8;;;;;;;16.9;83.83398;939.6767;;;;
2021/07/23 00:43:21;;;;;;;24.2;19;;;;;;;16.96;83.66992;939.5971;;;;
2021/07/23 00:45:46;;;;;;;24.7;19.4;;;;;;;16.9;83.72949;939.6566;;;;
2021/07/23 00:48:13;;;;;;;22.7;18.9;;;;;;;16.86;84.06836;939.6249;;;;
2021/07/23 00:50:37;;;;;;;22.9;19;;;;;;;16.84;84.34277;939.6284;;;;
2021/07/23 00:53:02;;;;;;;22.9;18.5;;;;;;;16.85;84.20703;939.51;;;;
2021/07/23 00:55:27;;;;;;;23.5;19.1;;;;;;;16.83;84.25977;939.5778;;;;
2021/07/23 00:57:53;;;;;;;21.3;17.6;;;;;;;16.88;83.89844;939.6022;;;;
2021/07/23 01:00:18;;;;;;;22.6;18.4;;;;;;;16.84;83.48535;939.5222;;;;
2021/07/23 01:02:44;;;;;;;24.7;18.5;;;;;;;16.79;83.37305;939.5338;;;;
2021/07/23 01:05:09;;;;;;;21.3;17.8;;;;;;;16.63;83.83984;939.525;;;;
2021/07/23 01:07:36;;;;;;;24.5;18.4;;;;;;;16.46;84.84863;939.5017;;;;
2021/07/23 01:10:01;;;;;;;23.1;18.1;;;;;;;16.32;85.63281;939.5238;;;;
2021/07/23 01:12:27;;;;;;;23.4;19;;;;;;;16.19;86.46191;939.4791;;;;
2021/07/23 01:14:52;;;;;;;25.9;19.7;;;;;;;16.2;86.52148;939.4999;;;;
2021/07/23 01:17:18;;;;;;;24;18.1;;;;;;;16.26;86.16406;939.4988;;;;
2021/07/23 01:19:43;;;;;;;25.8;18.6;;;;;;;16.31;85.71191;939.491;;;;
2021/07/23 01:22:09;;;;;;;23.1;19.5;;;;;;;16.41;85.22168;939.5872;;;;
2021/07/23 01:24:34;;;;;;;24.1;19.4;;;;;;;16.34;85.72852;939.5051;;;;
2021/07/23 01:27:01;;;;;;;25.1;19.8;;;;;;;16.42;85.23535;939.5753;;;;
2021/07/23 01:29:26;;;;;;;24;19;;;;;;;;;;;;;
2021/07/23 01:31:51;;;;;;;22.9;18.6;;;;;;;;;;;;;
2021/07/23 01:34:16;;;;;;;23.9;18.1;;;;;;;;;;;;;
2021/07/23 01:36:42;;;;;;;23.1;18.2;;;;;;;;;;;;;
2021/07/23 01:39:07;;;;;;;21.4;18.2;;;;;;;;;;;;;
2021/07/23 01:41:33;;;;;;;22.5;17.9;;;;;;;;;;;;;
2021/07/23 01:43:59;;;;;;;21.6;17.6;;;;;;;;;;;;;
2021/07/23 01:46:24;;;;;;;21.9;18.2;;;;;;;;;;;;;
2021/07/23 01:48:49;;;;;;;23.1;18.1;;;;;;;;;;;;;
2021/07/23 01:51:14;;;;;;;25.7;18.3;;;;;;;;;;;;;
2021/07/23 01:53:39;;;;;;;22.4;17.5;;;;;;;;;;;;;
2021/07/23 01:56:04;;;;;;;23.3;17.8;;;;;;;;;;;;;
2021/07/23 01:58:31;;;;;;;23.7;18.1;;;;;;;;;;;;;
2021/07/23 02:00:57;;;;;;;21.5;18.1;;;;;;;;;;;;;
2021/07/23 02:03:20;;;;;;;22;18.4;;;;;;;;;;;;;
2021/07/23 02:05:45;;;;;;;25.7;18.2;;;;;;;;;;;;;
2021/07/23 02:08:10;;;;;;;23.4;17.3;;;;;;;;;;;;;
2021/07/23 02:10:35;;;;;;;23.3;17.9;;;;;;;;;;;;;
2021/07/23 02:13:01;;;;;;;23.1;18.5;;;;;;;;;;;;;
2021/07/23 02:15:25;;;;;;;23.1;18.4;;;;;;;;;;;;;
2021/07/23 02:17:51;;;;;;;23.4;19.2;;;;;;;;;;;;;
2021/07/23 02:20:16;;;;;;;24.6;19.2;;;;;;;;;;;;;
2021/07/23 02:22:41;;;;;;;21.9;18.4;;;;;;;;;;;;;
2021/07/23 02:25:10;;;;;;;21.5;18.3;;;;;;;;;;;;;
2021/07/23 02:27:35;;;;;;;22.8;18.8;;;;;;;;;;;;;
2021/07/23 02:30:01;;;;;;;21.6;17.9;;;;;;;;;;;;;
2021/07/23 02:32:26;;;;;;;22.6;18.1;;;;;;;;;;;;;
2021/07/23 02:34:51;;;;;;;22.9;18.2;;;;;;;;;;;;;
2021/07/23 02:37:16;;;;;;;21.4;17.8;;;;;;;;;;;;;
2021/07/23 02:39:41;;;;;;;21.9;18.3;;;;;;;;;;;;;
2021/07/23 02:42:06;;;;;;;24.1;18.4;;;;;;;;;;;;;
2021/07/23 02:44:31;;;;;;;23;18.3;;;;;;;;;;;;;
2021/07/23 02:46:56;;;;;;;21.6;17.3;;;;;;;;;;;;;
2021/07/23 02:49:23;;;;;;;23;17.6;;;;;;;;;;;;;
2021/07/23 02:51:48;;;;;;;22.3;17.8;;;;;;;;;;;;;
2021/07/23 02:54:14;;;;;;;21.4;17.8;;;;;;;;;;;;;
2021/07/23 02:56:39;;;;;;;20.4;17.4;;;;;;;;;;;;;
2021/07/23 02:59:05;;;;;;;21.6;17.5;;;;;;;;;;;;;
2021/07/23 03:01:30;;;;;;;23;17.6;;;;;;;;;;;;;
2021/07/23 03:03:56;;;;;;;23.1;17.4;;;;;;;;;;;;;
2021/07/23 03:06:21;;;;;;;21.6;17.4;;;;;;;;;;;;;
2021/07/23 03:08:47;;;;;;;21.8;17.4;;;;;;;;;;;;;
2021/07/23 03:11:12;;;;;;;23.7;18.6;;;;;;;;;;;;;
2021/07/23 03:13:38;;;;;;;23.1;18.4;;;;;;;;;;;;;
2021/07/23 03:16:03;;;;;;;21.9;17.6;;;;;;;;;;;;;
2021/07/23 03:18:28;;;;;;;23.1;18.1;;;;;;;;;;;;;
2021/07/23 03:20:53;;;;;;;21.9;17.4;;;;;;;;;;;;;
2021/07/23 03:23:18;;;;;;;23.6;18.1;;;;;;;;;;;;;
2021/07/23 03:25:43;;;;;;;22.9;18;;;;;;;;;;;;;
2021/07/23 03:28:08;;;;;;;22.4;18.2;;;;;;;;;;;;;
2021/07/23 03:30:34;;;;;;;25.5;17.8;;;;;;;;;;;;;
2021/07/23 03:32:59;;;;;;;21.5;17.3;;;;;;;;;;;;;
2021/07/23 03:35:24;;;;;;;25.1;18.4;;;;;;;;;;;;;
2021/07/23 03:37:49;;;;;;;25.8;17.9;;;;;;;;;;;;;
2021/07/23 03:40:14;;;;;;;25.2;17.6;;;;;;;;;;;;;
2021/07/23 03:42:40;;;;;;;23.4;18.1;;;;;;;;;;;;;
2021/07/23 03:45:05;;;;;;;22.8;18.7;;;;;;;;;;;;;
2021/07/23 03:47:31;;;;;;;24.4;18.2;;;;;;;;;;;;;
2021/07/23 03:49:56;;;;;;;22.1;17.7;;;;;;;;;;;;;
2021/07/23 03:52:22;;;;;;;23.9;17.4;;;;;;;;;;;;;
2021/07/23 03:54:47;;;;;;;23.5;16.9;;;;;;;;;;;;;
2021/07/23 03:57:14;;;;;;;23.9;18.3;;;;;;;;;;;;;
2021/07/23 03:59:39;;;;;;;24.4;18.2;;;;;;;;;;;;;
2021/07/23 04:02:32;;;;;;;21.1;17.5;;;;;;;15.44;87.04102;939.1194;;;;
2021/07/23 04:04:57;;;;;;;22.5;17.4;;;;;;;15.44;87.03027;939.0295;;;;
2021/07/23 04:07:23;;;;;;;22.4;17.3;;;;;;;15.45;87.25098;939.0607;;;;
2021/07/23 04:09:48;;;;;;;23.7;17.8;;;;;;;15.57;86.7793;939.0011;;;;
2021/07/23 04:12:14;;;;;;;23.9;17.4;;;;;;;15.62;86.31543;939.1008;;;;
2021/07/23 04:14:39;;;;;;;23.6;17.3;;;;;;;15.64;85.32715;939.1311;;;;
2021/07/23 04:17:06;;;;;;;23.5;17.9;;;;;;;15.64;85.78906;939.0886;;;;
2021/07/23 04:19:31;;;;;;;20.6;17.1;;;;;;;15.7;85.8916;939.0576;;;;
2021/07/23 04:21:58;;;;;;;22;16.3;;;;;;;15.69;86.17871;939.1066;;;;
2021/07/23 04:24:24;;;;;;;22.3;17.4;;;;;;;15.73;85.66797;939.0926;;;;
2021/07/23 04:26:50;;;;;;;23.9;16.8;;;;;;;15.81;85.48535;939.0726;;;;
2021/07/23 04:29:15;;;;;;;24.3;16.6;;;;;;;15.87;85.42871;939.1583;;;;
2021/07/23 04:31:41;;;;;;;23.3;16.3;;;;;;;15.93;85.07129;939.1231;;;;
2021/07/23 04:34:06;;;;;;;22.5;17.2;;;;;;;15.65;85.97559;939.147;;;;
2021/07/23 04:36:33;;;;;;;23.2;17.5;;;;;;;15.64;86.67871;939.2081;;;;
2021/07/23 04:39:03;;;;;;;30.3;20.7;;;;;;;15.78;85.80371;939.1861;;;;
2021/07/23 04:41:23;;;;;;;30.3;21.4;;;;;;;15.83;85.76855;939.19;;;;
2021/07/23 04:43:49;;;;;;;24.8;18.7;;;;;;;15.98;85.21875;939.1725;;;;
2021/07/23 04:46:14;;;;;;;23.8;17.2;;;;;;;16.18;84.21777;939.1996;;;;
2021/07/23 04:48:40;;;;;;;22.9;17.3;;;;;;;16.26;84.02344;939.2377;;;;
2021/07/23 04:51:05;;;;;;;23.2;18;;;;;;;16.4;83.73926;939.2272;;;;
2021/07/23 04:53:32;;;;;;;23.4;16.9;;;;;;;16.56;82.56543;939.1918;;;;
2021/07/23 04:56:00;;;;;;;20.5;16.5;;;;;;;16.44;82.58887;939.2544;;;;
2021/07/23 04:58:24;;;;;;;22.1;15.7;;;;;;;16.36;82.81641;939.2502;;;;
2021/07/23 05:00:50;;;;;;;21.7;16.3;;;;;;;16.45;82.76172;939.3098;;;;
2021/07/23 05:03:15;;;;;;;21.6;16;;;;;;;16.53;82.66113;939.2558;;;;
2021/07/23 05:05:40;;;;;;;21.8;16.2;;;;;;;16.62;82.53027;939.2582;;;;
2021/07/23 05:08:05;;;;;;;24.6;15.8;;;;;;;16.63;82.4043;939.2033;;;;
2021/07/23 05:10:31;;;;;;;22.7;15.9;;;;;;;16.68;82.2041;939.2747;;;;
2021/07/23 05:12:56;;;;;;;19.7;16.3;;;;;;;16.75;81.70801;939.2495;;;;
2021/07/23 05:15:26;;;;;;;20.6;15.7;;;;;;;16.92;81.15039;939.2026;;;;
2021/07/23 05:17:51;;;;;;;24.1;16.1;;;;;;;17.15;80.54297;939.2432;;;;
2021/07/23 05:20:19;;;;;;;20.8;15.4;;;;;;;17.33;79.16211;939.2249;;;;
2021/07/23 05:22:44;;;;;;;22.7;15.3;;;;;;;17.47;78.96582;939.1883;;;;
2021/07/23 05:25:11;;;;;;;18.4;14.2;;;;;;;17.49;77.98438;939.1646;;;;
2021/07/23 05:27:36;;;;;;;22.3;14.9;;;;;;;17.74;77.38965;939.2095;;;;
2021/07/23 05:30:02;;;;;;;22.3;15.5;;;;;;;17.74;77.8418;939.1733;;;;
2021/07/23 05:32:27;;;;;;;17.8;14.7;;;;;;;17.76;77.92676;939.2036;;;;
2021/07/23 05:34:55;;;;;;;20.9;14.1;;;;;;;18.77;74.88281;939.1856;;;;
2021/07/23 05:37:20;;;;;;;19.5;14.1;;;;;;;20.39;70.41797;939.1853;;;;
2021/07/23 05:39:48;;;;;;;17.7;13.7;;;;;;;20.97;65.35254;939.1671;;;;
2021/07/23 05:42:13;;;;;;;19.1;13.7;;;;;;;21.45;63.53906;939.1318;;;;
2021/07/23 05:44:40;;;;;;;18.2;13.3;;;;;;;22.49;61.91504;939.1822;;;;
2021/07/23 05:47:05;;;;;;;18;13.5;;;;;;;21.88;60.85938;939.1633;;;;
2021/07/23 05:49:34;;;;;;;17.6;13;;;;;;;23.52;57.27441;939.2192;;;;
2021/07/23 05:51:59;;;;;;;15.4;13;;;;;;;23.74;54.57227;939.1917;;;;
2021/07/23 05:54:25;;;;;;;17.3;12.9;;;;;;;24.51;54.52637;939.1912;;;;
2021/07/23 05:56:50;;;;;;;16.7;13.8;;;;;;;24.91;51.12891;939.1997;;;;
2021/07/23 05:59:19;;;;;;;18.3;13.4;;;;;;;23.73;54.13477;939.229;;;;
2021/07/23 06:01:45;;;;;;;14.9;12.6;;;;;;;25.44;51.94434;939.1858;;;;
2021/07/23 06:04:14;;;;;;;19;12.1;;;;;;;26.54;47.53809;939.1217;;;;
2021/07/23 06:06:39;;;;;;;16.9;11.9;;;;;;;26.65;45.99902;939.1399;;;;
2021/07/23 06:09:04;;;;;;;15.4;12.1;;;;;;;25.42;49.41602;939.1454;;;;
2021/07/23 06:11:33;;;;;;;16.5;12.2;;;;;;;26.38;47.80566;939.1743;;;;
2021/07/23 06:13:58;;;;;;;20.8;13;;;;;;;27.15;45.29102;939.1538;;;;
2021/07/23 06:16:28;;;;;;;18.2;12.3;;;;;;;26.09;47.4668;939.065;;;;
2021/07/23 06:18:53;;;;;;;16.5;12.2;;;;;;;27.08;46.8252;939.1877;;;;
2021/07/23 06:21:21;;;;;;;16.1;11.3;;;;;;;27.33;44.91699;939.1658;;;;
2021/07/23 06:23:45;;;;;;;12.6;10.4;;;;;;;28.11;42.91699;939.0826;;;;
2021/07/23 06:26:14;;;;;;;16.2;11.2;;;;;;;28.83;42.21094;939.0458;;;;
2021/07/23 06:28:39;;;;;;;18;12.1;;;;;;;27.34;43.26953;939.1606;;;;
2021/07/23 06:31:09;;;;;;;14;11.7;;;;;;;27.43;44.66699;939.1188;;;;
2021/07/23 06:33:34;;;;;;;16.7;11.6;;;;;;;27.68;42.99414;939.0401;;;;
2021/07/23 06:36:06;;;;;;;15.6;11.8;;;;;;;28.95;42.13867;939.0012;;;;
2021/07/23 06:38:35;;;;;;;14.6;12;;;;;;;29.11;40.91602;938.9853;;;;
2021/07/23 06:41:41;;;;;;;14.9;12.3;;;;;;;28.91;40.68359;938.9556;;;;
2021/07/23 06:43:32;;;;;;;13.9;11.9;;;;;;;30.62;37.70801;938.985;;;;
2021/07/23 06:46:04;;;;;;;16.9;11.7;;;;;;;29.58;39.82617;939.0161;;;;
2021/07/23 06:48:28;;;;;;;14.6;12;;;;;;;29.37;41.04785;939.006;;;;
2021/07/23 06:50:59;;;;;;;13.8;11.9;;;;;;;30.63;39.78711;939.0126;;;;
2021/07/23 06:53:26;;;;;;;15.7;12.5;;;;;;;30.71;37.47559;938.9252;;;;
2021/07/23 06:55:51;;;;;;;15.7;11.4;;;;;;;30.4;37.4502;938.9394;;;;
2021/07/23 06:58:19;;;;;;;13.2;11.8;;;;;;;31.57;36.7334;938.9295;;;;
2021/07/23 07:00:44;;;;;;;13.9;11.2;;;;;;;31.63;36.19922;938.9465;;;;
2021/07/23 07:03:23;;;;;;;14.9;11.7;;;;;;;31.74;35.93262;938.9032;;;;
2021/07/23 07:05:51;;;;;;;13.4;10.9;;;;;;;32.62;34.92188;938.827;;;;
2021/07/23 07:08:20;;;;;;;16.8;11.5;;;;;;;32.92;33.45605;938.8217;;;;
2021/07/23 07:10:45;;;;;;;12.9;10.6;;;;;;;32.58;33.38281;938.848;;;;
2021/07/23 07:13:13;;;;;;;15.7;11.3;;;;;;;33.31;33.83301;938.8226;;;;
2021/07/23 07:15:41;;;;;;;12.3;10.1;;;;;;;34.36;32.42969;938.8076;;;;
2021/07/23 07:18:06;;;;;;;12.8;10.1;;;;;;;34.95;30.28809;938.7966;;;;
2021/07/23 07:20:36;;;;;;;12.1;9.7;;;;;;;35.24;31.86426;938.8056;;;;
2021/07/23 07:23:01;;;;;;;16.1;8.9;;;;;;;35.42;30.19824;938.815;;;;
2021/07/23 07:25:32;;;;;;;11;9;;;;;;;34.08;30.54395;938.7606;;;;
2021/07/23 07:28:00;;;;;;;12.6;9.1;;;;;;;33.23;30.83496;938.7065;;;;
2021/07/23 07:30:24;;;;;;;11.7;8.9;;;;;;;33.25;33.31152;938.6817;;;;
2021/07/23 07:32:51;;;;;;;9.9;8.2;;;;;;;32.07;34.37598;938.6945;;;;
2021/07/23 07:35:16;;;;;;;12;8.4;;;;;;;33.27;32.44824;938.6559;;;;
2021/07/23 07:37:43;;;;;;;10.7;8.9;;;;;;;34.22;31.9375;938.6547;;;;
2021/07/23 07:40:08;;;;;;;10.6;8.4;;;;;;;35.92;29.38574;938.6486;;;;
2021/07/23 07:42:34;;;;;;;11.8;9.4;;;;;;;36.35;27.84082;938.6777;;;;
2021/07/23 07:44:59;;;;;;;11.9;9.1;;;;;;;35.68;29.22461;938.621;;;;
2021/07/23 07:47:26;;;;;;;10.9;8.8;;;;;;;37.03;28.20801;938.6017;;;;
2021/07/23 07:49:51;;;;;;;10;8.4;;;;;;;37.62;25.97559;938.6286;;;;
2021/07/23 07:52:19;;;;;;;9.5;8.2;;;;;;;38.43;25.43848;938.551;;;;
2021/07/23 07:54:43;;;;;;;12.6;8.8;;;;;;;37.35;26.36035;938.5722;;;;
2021/07/23 07:57:10;;;;;;;9.5;8.1;;;;;;;37.96;27.40332;938.5742;;;;
2021/07/23 07:59:35;;;;;;;10.3;8.5;;;;;;;38.28;25.50293;938.538;;;;
2021/07/23 08:02:00;;;;;;;11.9;8.1;;;;;;;39.21;24.89746;938.5003;;;;
2021/07/23 08:04:27;;;;;;;10.4;8.2;;;;;;;38.85;26.34961;938.4867;;;;
2021/07/23 08:06:52;;;;;;;10;8.5;;;;;;;37.59;28.46191;938.4405;;;;
2021/07/23 08:09:21;;;;;;;10.4;8.5;;;;;;;37.77;27.37891;938.452;;;;
2021/07/23 08:11:46;;;;;;;9.6;8.3;;;;;;;37.67;26.33008;938.4966;;;;
2021/07/23 08:14:14;;;;;;;10.8;8.8;;;;;;;36.26;28.25781;938.4562;;;;
2021/07/23 08:16:46;;;;;;;11;8.4;;;;;;;35.46;30.4541;938.4274;;;;
2021/07/23 08:19:13;;;;;;;10.7;9;;;;;;;35.1;30.55176;938.3986;;;;
2021/07/23 08:21:38;;;;;;;12.6;9.7;;;;;;;36.83;27.02148;938.3599;;;;
2021/07/23 08:24:04;;;;;;;10.5;8.6;;;;;;;36.79;28.1084;938.3181;;;;
2021/07/23 08:26:29;;;;;;;13.1;9.1;;;;;;;37.36;26.53027;938.3309;;;;
2021/07/23 08:28:56;;;;;;;11.7;8.9;;;;;;;37.87;27.62891;938.2894;;;;
2021/07/23 08:31:21;;;;;;;11.9;9.5;;;;;;;37.91;25.36133;938.2665;;;;
2021/07/23 08:33:47;;;;;;;9.4;8;;;;;;;35.79;27.92773;938.2858;;;;
2021/07/23 08:36:12;;;;;;;10.9;8.5;;;;;;;35.3;32.21875;938.2474;;;;
2021/07/23 08:38:39;;;;;;;11;8.8;;;;;;;35.09;31.58789;938.2686;;;;
2021/07/23 08:41:05;;;;;;;12;8.8;;;;;;;35.7;30.38574;938.2823;;;;
2021/07/23 08:43:32;;;;;;;12.1;9;;;;;;;35.06;32.64746;938.2999;;;;
2021/07/23 08:45:57;;;;;;;11.6;8.7;;;;;;;36.24;31.01465;938.2444;;;;
2021/07/23 08:48:25;;;;;;;14.1;9.8;;;;;;;34.9;32.1543;938.1852;;;;
2021/07/23 08:50:50;;;;;;;14.5;9.4;;;;;;;35.15;31.68848;938.2372;;;;
2021/07/23 08:53:17;;;;;;;11.1;8.7;;;;;;;37.2;28.37598;938.1948;;;;
2021/07/23 08:55:41;;;;;;;12;9.3;;;;;;;38.01;26.86035;938.1495;;;;
2021/07/23 08:58:07;;;;;;;13;9.9;;;;;;;37.9;27.08398;938.1378;;;;
2021/07/23 09:00:32;;;;;;;10.9;9;;;;;;;36.33;30.24707;938.1769;;;;
2021/07/23 09:02:59;;;;;;;12.5;9.8;;;;;;;33.21;32.73145;938.1573;;;;
2021/07/23 09:05:24;;;;;;;13.3;9.4;;;;;;;34.61;34.00195;938.1447;;;;
2021/07/23 09:07:53;;;;;;;15.2;9.5;;;;;;;36.02;31.99121;938.2043;;;;
2021/07/23 09:10:18;;;;;;;13.6;10;;;;;;;36.34;30.75488;938.2273;;;;
2021/07/23 09:12:43;;;;;;;11.9;9.8;;;;;;;36.49;29.73633;938.1118;;;;
2021/07/23 09:15:16;;;;;;;12.4;9.6;;;;;;;37.4;30.19629;938.1181;;;;
2021/07/23 09:17:42;;;;;;;11.7;10;;;;;;;34.87;33.42969;938.1248;;;;
2021/07/23 09:20:14;;;;;;;14;10.5;;;;;;;34.1;36.61328;938.134;;;;
2021/07/23 09:22:45;;;;;;;12.6;9.4;;;;;;;34.57;35.55371;938.0228;;;;
2021/07/23 09:25:10;;;;;;;14.2;10.3;;;;;;;35.31;33.57227;938.0964;;;;
2021/07/23 09:27:39;;;;;;;13.1;10.5;;;;;;;34.37;34.18945;937.9838;;;;
2021/07/23 09:30:06;;;;;;;12.7;9.9;;;;;;;36.47;31.23633;937.9792;;;;
2021/07/23 09:32:31;;;;;;;12.5;10.4;;;;;;;35.28;32.53027;937.9399;;;;
2021/07/23 09:34:56;;;;;;;13;10.3;;;;;;;35.53;32.35449;937.9189;;;;
2021/07/23 09:37:21;;;;;;;11.8;10.2;;;;;;;35.72;33.32422;937.8474;;;;
2021/07/23 09:39:48;;;;;;;15.3;10.7;;;;;;;34.14;35.90625;937.7867;;;;
2021/07/23 09:42:15;;;;;;;12.3;10;;;;;;;34.23;35.05762;937.8088;;;;
2021/07/23 09:44:39;;;;;;;15.2;10.9;;;;;;;33.32;38.50977;937.8122;;;;
2021/07/23 09:47:05;;;;;;;13.8;11;;;;;;;34.09;36.38379;937.7767;;;;
2021/07/23 09:49:33;;;;;;;14.4;11.1;;;;;;;34.64;34.40234;937.7255;;;;
2021/07/23 09:52:01;;;;;;;13.8;10.7;;;;;;;35.39;32.30859;937.7955;;;;
2021/07/23 09:54:26;;;;;;;15.1;10.6;;;;;;;35.42;32.0459;937.778;;;;
2021/07/23 09:56:51;;;;;;;14.4;10.9;;;;;;;35.35;32.68066;937.801;;;;
2021/07/23 09:59:17;;;;;;;16.2;10.8;;;;;;;36.2;31.61719;937.7595;;;;
2021/07/23 10:01:42;;;;;;;13.9;10.6;;;;;;;35.09;32.14258;937.7266;;;;
2021/07/23 10:04:07;;;;;;;13.8;10.7;;;;;;;32.47;38.65332;937.6601;;;;
2021/07/23 10:06:32;;;;;;;15;10.5;;;;;;;33.01;36.12891;937.5522;;;;
2021/07/23 10:08:59;;;;;;;15.1;11.3;;;;;;;32.91;37.23828;937.5631;;;;
2021/07/23 10:11:24;;;;;;;16.1;11.7;;;;;;;33.31;38.48438;937.5472;;;;
2021/07/23 10:13:56;;;;;;;15.8;11.8;;;;;;;31.51;39.58887;937.5552;;;;
2021/07/23 10:16:28;;;;;;;15.2;11.5;;;;;;;31.37;41.04883;937.5692;;;;
2021/07/23 10:18:57;;;;;;;17.9;12;;;;;;;32.01;40.3877;937.4981;;;;
2021/07/23 10:21:22;;;;;;;13.3;10.6;;;;;;;31.35;43.85938;937.5311;;;;
2021/07/23 10:24:08;;;;;;;16.1;11.7;;;;;;;30.93;43.50781;937.4681;;;;
2021/07/23 10:26:12;;;;;;;15.7;12;;;;;;;31.19;41.84668;937.4182;;;;
2021/07/23 10:28:42;;;;;;;17.5;11.1;;;;;;;32.17;41.02637;937.3937;;;;
2021/07/23 10:31:06;;;;;;;14.1;11.1;;;;;;;32.61;40.2373;937.3898;;;;
2021/07/23 10:33:35;;;;;;;14;11.1;;;;;;;33.21;38.91992;937.3378;;;;
2021/07/23 10:36:00;;;;;;;14.9;11.5;;;;;;;32.62;39.24219;937.2611;;;;
2021/07/23 10:38:30;;;;;;;16.9;11.6;;;;;;;31.98;41.00879;937.3179;;;;
2021/07/23 10:40:55;;;;;;;16.9;11.1;;;;;;;31.65;43.09766;937.2249;;;;
2021/07/23 10:43:20;;;;;;;18;11.9;;;;;;;29.77;45.33984;937.2554;;;;
2021/07/23 10:45:52;;;;;;;17.4;12.3;;;;;;;30.48;45.44727;937.2289;;;;
2021/07/23 10:48:21;;;;;;;17;12.1;;;;;;;30.41;44.04395;937.2437;;;;
2021/07/23 10:50:46;;;;;;;18.9;13.1;;;;;;;29.56;47.15527;937.1436;;;;
2021/07/23 10:53:14;;;;;;;18.9;12.3;;;;;;;29.67;47.60742;937.1266;;;;
2021/07/23 10:55:40;;;;;;;15;11.8;;;;;;;30.38;43.83691;937.1597;;;;
2021/07/23 10:58:04;;;;;;;14;11;;;;;;;30.92;44.54688;937.1436;;;;
2021/07/23 11:00:31;;;;;;;18;13.1;;;;;;;30.84;44.15723;937.1563;;;;
2021/07/23 11:02:59;;;;;;;17;12.3;;;;;;;30.34;45.49316;937.1005;;;;
2021/07/23 11:05:24;;;;;;;17;13.1;;;;;;;29.62;46.51758;937.04;;;;
2021/07/23 11:07:49;;;;;;;16.3;12.5;;;;;;;30.66;44.80762;936.9983;;;;
2021/07/23 11:10:14;;;;;;;17.3;12.5;;;;;;;31.11;44.73242;937.0069;;;;
2021/07/23 11:12:42;;;;;;;18.1;13;;;;;;;31.14;43.16895;936.9948;;;;
2021/07/23 11:15:07;;;;;;;20.2;13.4;;;;;;;31.65;41.80469;937.0058;;;;
2021/07/23 11:17:36;;;;;;;18.4;12.3;;;;;;;31.81;41.42383;936.9395;;;;
2021/07/23 11:20:09;;;;;;;16.4;12.7;;;;;;;31.62;41.68262;936.9363;;;;
2021/07/23 11:22:36;;;;;;;18.1;12.3;;;;;;;31.68;40.31055;936.9196;;;;
2021/07/23 11:25:01;;;;;;;16.4;11.7;;;;;;;31.24;42.65234;936.8937;;;;
2021/07/23 11:27:26;;;;;;;20.3;12.9;;;;;;;30.64;44.07813;936.9211;;;;
2021/07/23 11:29:54;;;;;;;18.1;12.8;;;;;;;29.69;47.43066;936.9102;;;;
2021/07/23 11:32:25;;;;;;;17.1;13.1;;;;;;;29.3;49.24902;936.8686;;;;
2021/07/23 11:34:50;;;;;;;17.9;12.9;;;;;;;29.12;48.62207;936.8652;;;;
2021/07/23 11:37:15;;;;;;;18.6;13.6;;;;;;;29.3;48.72461;936.8315;;;;
2021/07/23 11:39:42;;;;;;;20.4;15.6;;;;;;;28.88;48.77344;936.8233;;;;
2021/07/23 11:42:07;;;;;;;18.8;15.4;;;;;;;28.96;49.12695;936.866;;;;
2021/07/23 11:44:32;;;;;;;19.6;15.6;;;;;;;29.15;48.54199;936.8298;;;;
2021/07/23 11:46:57;;;;;;;18.3;14.9;;;;;;;29.57;46.49902;936.796;;;;
2021/07/23 11:49:22;;;;;;;19.3;15.3;;;;;;;29.14;49.01563;936.8013;;;;
2021/07/23 11:51:48;;;;;;;18.9;15.1;;;;;;;29.58;46.82422;936.7703;;;;
2021/07/23 11:54:14;;;;;;;19.9;14.3;;;;;;;29.87;47.52051;936.812;;;;
2021/07/23 11:56:39;;;;;;;20.6;14.9;;;;;;;29.67;46.03418;936.7486;;;;
2021/07/23 11:59:04;;;;;;;16.8;13.9;;;;;;;29.44;47.08203;936.7269;;;;
2021/07/23 12:01:30;;;;;;;19.5;15;;;;;;;29.07;48.48535;936.7245;;;;
2021/07/23 12:03:55;;;;;;;18.7;15.6;;;;;;;29.32;48.05957;936.6655;;;;
2021/07/23 12:06:23;;;;;;;23;15.5;;;;;;;29.2;49.54688;936.6289;;;;
2021/07/23 12:08:53;;;;;;;23.3;15.9;;;;;;;28.92;48.82617;936.6478;;;;
2021/07/23 12:11:15;;;;;;;19.8;15.9;;;;;;;28.61;49.49414;936.6484;;;;
2021/07/23 12:13:44;;;;;;;22.5;15.7;;;;;;;29.04;46.68457;936.5776;;;;
2021/07/23 12:16:10;;;;;;;21.5;15.2;;;;;;;28.78;48.23926;936.58;;;;
2021/07/23 12:18:35;;;;;;;20.1;14.9;;;;;;;29.06;47.2334;936.5185;;;;
2021/07/23 12:21:05;;;;;;;18.8;14.7;;;;;;;28.98;48.84375;936.475;;;;
2021/07/23 12:23:30;;;;;;;18.5;14.9;;;;;;;29.14;45.02637;936.5027;;;;
2021/07/23 12:25:57;;;;;;;18.8;15.3;;;;;;;29.19;48.11719;936.4662;;;;
2021/07/23 12:28:27;;;;;;;20.6;14.9;;;;;;;29.31;47.36816;936.4634;;;;
2021/07/23 12:30:53;;;;;;;21;15.4;;;;;;;29.29;47.65039;936.4361;;;;
2021/07/23 12:33:19;;;;;;;17.6;14.3;;;;;;;28.84;50.29297;936.4583;;;;
2021/07/23 12:35:45;;;;;;;17.4;14.1;;;;;;;29.13;47.39551;936.4506;;;;
2021/07/23 12:38:11;;;;;;;19.3;14.8;;;;;;;29.25;47.79004;936.4001;;;;
2021/07/23 12:40:36;;;;;;;18.1;14.8;;;;;;;28.29;49.76758;936.3521;;;;
2021/07/23 12:43:04;;;;;;;21.8;15.5;;;;;;;28.19;51.51563;936.437;;;;
2021/07/23 12:45:31;;;;;;;18.1;15.4;;;;;;;28.7;48.64746;936.3544;;;;
2021/07/23 12:47:57;;;;;;;19.9;14.7;;;;;;;28.87;50.65234;936.3544;;;;
2021/07/23 12:50:22;;;;;;;18.9;15.2;;;;;;;28.38;51.7627;936.3476;;;;
2021/07/23 12:52:48;;;;;;;19.7;15.6;;;;;;;28.42;51.32715;936.3286;;;;
2021/07/23 12:55:13;;;;;;;18.6;15.1;;;;;;;27.92;53.37402;936.3387;;;;
2021/07/23 12:57:40;;;;;;;21;16.1;;;;;;;28.2;51.89746;936.3201;;;;
2021/07/23 13:00:05;;;;;;;19.6;14.4;;;;;;;28.48;49.27832;936.3461;;;;
2021/07/23 13:02:32;;;;;;;20.5;14.8;;;;;;;28.51;47.4375;936.3133;;;;
2021/07/23 13:04:57;;;;;;;19.6;15.5;;;;;;;28.25;50.7373;936.307;;;;
2021/07/23 13:07:23;;;;;;;18.2;14.7;;;;;;;28.29;47.60449;936.2776;;;;
2021/07/23 13:09:48;;;;;;;18.9;15.7;;;;;;;28.44;50.31934;936.2874;;;;
2021/07/23 13:12:17;;;;;;;17.7;15;;;;;;;28.79;46.9082;936.2514;;;;
2021/07/23 13:14:42;;;;;;;18.5;14.8;;;;;;;28.94;45.86426;936.312;;;;
2021/07/23 13:17:08;;;;;;;17;14.3;;;;;;;29.04;45.80371;936.302;;;;
2021/07/23 13:19:33;;;;;;;17.8;14.3;;;;;;;28.72;48.3877;936.2662;;;;
2021/07/23 13:22:00;;;;;;;19.6;14.8;;;;;;;28.65;47.94043;936.2708;;;;
2021/07/23 13:24:25;;;;;;;21.2;14.8;;;;;;;28.71;45.10449;936.1848;;;;
2021/07/23 13:26:50;;;;;;;17.9;14.4;;;;;;;28.66;46.53809;936.2062;;;;
2021/07/23 13:29:15;;;;;;;18.9;14.4;;;;;;;28.85;46.83008;936.2183;;;;
2021/07/23 13:31:41;;;;;;;19.4;14.9;;;;;;;28.55;48.55957;936.2648;;;;
2021/07/23 13:34:06;;;;;;;17;14.3;;;;;;;28.7;47.7793;936.1758;;;;
2021/07/23 13:36:32;;;;;;;18;15.1;;;;;;;28.93;46.45898;936.0999;;;;
2021/07/23 13:38:57;;;;;;;19.9;15.5;;;;;;;28.93;47.92188;936.0581;;;;
2021/07/23 13:41:22;;;;;;;18.8;15.1;;;;;;;28.83;48.58984;936.0341;;;;
2021/07/23 13:43:49;;;;;;;19.6;14.9;;;;;;;28.6;48.95703;936.0348;;;;
2021/07/23 13:46:14;;;;;;;20.3;14.9;;;;;;;28.52;49.65137;936.0515;;;;
2021/07/23 13:48:46;;;;;;;19.4;14.8;;;;;;;28.84;46.61621;936.0359;;;;
2021/07/23 13:51:08;;;;;;;18.9;15.3;;;;;;;28.67;49.64355;936.0311;;;;
2021/07/23 13:53:35;;;;;;;20;14.6;;;;;;;28.65;47.72559;935.963;;;;
2021/07/23 13:56:00;;;;;;;17.2;14.3;;;;;;;28.28;49.3623;935.9664;;;;
2021/07/23 13:58:29;;;;;;;17.7;14.8;;;;;;;28.59;48.31348;935.9371;;;;
2021/07/23 14:00:56;;;;;;;20.6;14.8;;;;;;;28.63;47.65234;935.8886;;;;
2021/07/23 14:03:21;;;;;;;19.3;14.7;;;;;;;28.46;49.41797;935.8594;;;;
2021/07/23 14:05:49;;;;;;;17;14.8;;;;;;;28.12;49.51074;935.8136;;;;
2021/07/23 14:08:14;;;;;;;17.6;14.5;;;;;;;27.66;51.43066;935.8431;;;;
2021/07/23 14:10:42;;;;;;;17.6;14.6;;;;;;;27.94;50.81055;935.8882;;;;
2021/07/23 14:13:07;;;;;;;19.3;14.9;;;;;;;28;48.91602;935.7938;;;;
2021/07/23 14:15:37;;;;;;;18.1;14.4;;;;;;;27.88;50.32813;935.8599;;;;
2021/07/23 14:18:01;;;;;;;18.8;14.3;;;;;;;27.98;48.86621;935.8563;;;;
2021/07/23 14:20:29;;;;;;;18.4;14.1;;;;;;;28.27;47.9707;935.8045;;;;
2021/07/23 14:22:54;;;;;;;17.3;14.3;;;;;;;28.24;49.76172;935.7776;;;;
2021/07/23 14:25:20;;;;;;;18.3;14.8;;;;;;;28.23;50.18945;935.7355;;;;
2021/07/23 14:27:45;;;;;;;19.8;14.3;;;;;;;28.04;49.05176;935.757;;;;
2021/07/23 14:30:14;;;;;;;19;14.7;;;;;;;28.12;47.1709;935.733;;;;
2021/07/23 14:32:42;;;;;;;17.3;13.8;;;;;;;28.19;47.74805;935.7642;;;;
2021/07/23 14:35:07;;;;;;;19.8;14;;;;;;;27.94;48.58984;935.6826;;;;
2021/07/23 14:37:34;;;;;;;19.1;14.4;;;;;;;27.84;51.2627;935.7183;;;;
2021/07/23 14:39:59;;;;;;;17.3;14.6;;;;;;;28.01;50.05762;935.6742;;;;
2021/07/23 14:42:26;;;;;;;18;14.4;;;;;;;28.04;49.00293;935.6581;;;;